Dallas, Iowa
Current Conditions -  °F | °C
As of 10:55 AM on Saturday 22 Nov 2014 (Local Time) from KOXV Reporting Station
Overcast Overcast  
Wind Chill:   Ceiling: 1000
Heat Index:   Visibility: 10mi
Dew Point:   Wind: 16mph
Humidity: 87%   Direction: 220°SW
Pressure: 29.86"   Gusts: 23mph
Location:  41.23°N, 93.24°W
Report Text: KOXV 221655Z AUTO 22014G20KT 10SM OVC010 09/07 A2986 RMK AO2
Loading
Personal Weather Stations






























Interactive Weather Map New forecast layout! Learn more

10-Day Weather Forecast

Advertisements
Track Severe Weather on mobile